createdAt,value
2019-01-08T00:00:43.794Z,2.60
2019-01-08T00:01:43.656Z,2.80
2019-01-08T00:02:43.517Z,2.50
2019-01-08T00:03:43.384Z,2.30
2019-01-08T00:04:43.246Z,2.40
2019-01-08T00:05:43.111Z,2.60
2019-01-08T00:06:42.974Z,2.40
2019-01-08T00:07:42.842Z,2.40
2019-01-08T00:08:42.700Z,2.30
2019-01-08T00:09:42.565Z,2.40
2019-01-08T00:10:42.430Z,2.80
2019-01-08T00:11:42.292Z,2.70
2019-01-08T00:12:42.162Z,2.50
2019-01-08T00:13:42.022Z,2.40
2019-01-08T00:14:41.886Z,2.40
2019-01-08T00:15:41.750Z,2.70
2019-01-08T00:16:41.614Z,2.50
2019-01-08T00:17:41.480Z,2.30
2019-01-08T00:18:41.341Z,2.40
2019-01-08T00:19:41.207Z,2.50
2019-01-08T00:20:41.070Z,2.40
2019-01-08T00:21:40.935Z,2.60
2019-01-08T00:22:40.799Z,2.30
2019-01-08T00:23:40.664Z,2.40
2019-01-08T00:24:40.526Z,2.20
2019-01-08T00:25:40.391Z,2.30
2019-01-08T00:26:40.256Z,2.20
2019-01-08T00:27:40.122Z,2.10
2019-01-08T00:28:43.349Z,2.10
2019-01-08T00:29:39.848Z,2.00
2019-01-08T00:30:39.713Z,2.00
2019-01-08T00:31:39.578Z,2.20
2019-01-08T00:32:39.441Z,2.30
2019-01-08T00:33:39.306Z,2.00
2019-01-08T00:34:39.172Z,2.20
2019-01-08T00:35:39.034Z,2.10
2019-01-08T00:36:38.898Z,2.10
2019-01-08T00:37:38.763Z,1.80
2019-01-08T00:38:38.639Z,2.00
2019-01-08T00:39:38.492Z,1.50
2019-01-08T00:40:38.357Z,1.60
2019-01-08T00:41:38.224Z,1.80
2019-01-08T00:42:38.083Z,1.60
2019-01-08T00:43:37.947Z,1.60
2019-01-08T00:44:37.814Z,1.50
2019-01-08T00:45:37.676Z,1.70
2019-01-08T00:46:37.546Z,1.60
2019-01-08T00:47:37.405Z,1.70
2019-01-08T00:48:37.272Z,1.70
2019-01-08T00:49:37.132Z,1.60
2019-01-08T00:50:36.997Z,1.40
2019-01-08T00:51:36.861Z,1.50
2019-01-08T00:52:36.726Z,1.70
2019-01-08T00:53:36.589Z,1.90
2019-01-08T00:54:36.457Z,1.60
2019-01-08T00:55:36.318Z,1.50
2019-01-08T00:56:36.184Z,2.10
2019-01-08T00:57:36.045Z,2.40
2019-01-08T00:58:35.909Z,2.20
2019-01-08T00:59:35.774Z,2.40
2019-01-08T01:00:35.637Z,2.20
2019-01-08T01:01:35.499Z,1.60
2019-01-08T01:02:35.364Z,1.60
2019-01-08T01:03:35.228Z,1.70
2019-01-08T01:04:35.091Z,1.80
2019-01-08T01:05:34.955Z,1.80
2019-01-08T01:06:34.821Z,1.50
2019-01-08T01:07:34.686Z,1.50
2019-01-08T01:08:34.547Z,1.50
2019-01-08T01:09:34.413Z,1.50
2019-01-08T01:10:34.273Z,2.00
2019-01-08T01:11:34.137Z,2.30
2019-01-08T01:12:34.045Z,2.20
2019-01-08T01:13:33.865Z,2.60
2019-01-08T01:14:33.736Z,2.60
2019-01-08T01:15:33.594Z,2.40
2019-01-08T01:16:33.459Z,2.60
2019-01-08T01:17:33.336Z,2.40
2019-01-08T01:18:33.188Z,2.20
2019-01-08T01:19:33.052Z,2.40
2019-01-08T01:20:32.916Z,2.50
2019-01-08T01:21:32.781Z,2.70
2019-01-08T01:22:32.653Z,2.70
2019-01-08T01:23:32.507Z,3.00
2019-01-08T01:24:32.370Z,2.90
2019-01-08T01:25:32.237Z,3.50
2019-01-08T01:26:32.098Z,3.10
2019-01-08T01:27:31.964Z,2.80
2019-01-08T01:28:31.825Z,3.20
2019-01-08T01:29:31.692Z,3.20
2019-01-08T01:30:31.553Z,3.00
2019-01-08T01:31:31.418Z,3.00
2019-01-08T01:32:31.288Z,2.50
2019-01-08T01:33:31.151Z,2.70
2019-01-08T01:34:31.008Z,2.90
2019-01-08T01:35:30.872Z,2.60
2019-01-08T01:36:30.736Z,2.90
2019-01-08T01:37:30.620Z,2.60
2019-01-08T01:38:30.463Z,2.70
2019-01-08T01:39:30.346Z,2.60
2019-01-08T01:40:30.193Z,2.90
2019-01-08T01:41:30.057Z,2.90
2019-01-08T01:42:29.927Z,2.80
2019-01-08T01:43:29.785Z,2.60
2019-01-08T01:44:29.647Z,2.70
2019-01-08T01:45:29.524Z,2.60
2019-01-08T01:46:29.375Z,2.60
2019-01-08T01:47:29.293Z,2.50
2019-01-08T01:48:29.103Z,2.60
2019-01-08T01:49:28.967Z,2.60
2019-01-08T01:50:28.831Z,2.60
2019-01-08T01:51:28.696Z,2.50
2019-01-08T01:52:28.561Z,2.20
2019-01-08T01:53:28.424Z,2.10
2019-01-08T01:54:28.287Z,2.20
2019-01-08T01:55:28.152Z,2.60
2019-01-08T01:56:28.017Z,3.10
2019-01-08T01:57:27.884Z,3.20
2019-01-08T01:58:27.743Z,3.10
2019-01-08T01:59:27.608Z,3.40
2019-01-08T02:00:27.468Z,3.00
2019-01-08T02:01:27.334Z,3.20
2019-01-08T02:02:27.197Z,2.80
2019-01-08T02:03:27.065Z,2.80
2019-01-08T02:04:26.927Z,2.80
2019-01-08T02:05:26.794Z,2.80
2019-01-08T02:06:26.654Z,2.90
2019-01-08T02:07:26.519Z,2.50
2019-01-08T02:08:26.382Z,2.60
2019-01-08T02:09:26.246Z,2.70
2019-01-08T02:10:26.110Z,2.70
2019-01-08T02:11:25.975Z,2.60
2019-01-08T02:12:25.837Z,2.30
2019-01-08T02:13:25.701Z,2.40
2019-01-08T02:14:25.565Z,2.50
2019-01-08T02:15:25.431Z,2.20
2019-01-08T02:16:25.294Z,2.40
2019-01-08T02:17:25.157Z,2.20
2019-01-08T02:18:25.024Z,2.90
2019-01-08T02:19:24.886Z,2.60
2019-01-08T02:20:24.750Z,2.90
2019-01-08T02:21:24.615Z,2.80
2019-01-08T02:22:24.568Z,3.00
2019-01-08T02:23:24.347Z,3.00
2019-01-08T02:24:24.205Z,3.30
2019-01-08T02:25:24.074Z,3.30
2019-01-08T02:26:23.935Z,3.10
2019-01-08T02:27:23.798Z,3.30
2019-01-08T02:28:23.674Z,3.20
2019-01-08T02:29:23.526Z,3.10
2019-01-08T02:30:23.395Z,3.30
2019-01-08T02:31:23.256Z,3.10
2019-01-08T02:32:23.118Z,3.40
2019-01-08T02:33:22.985Z,3.00
2019-01-08T02:34:22.851Z,2.70
2019-01-08T02:35:22.713Z,2.70
2019-01-08T02:36:22.575Z,2.40
2019-01-08T02:37:22.440Z,2.40
2019-01-08T02:38:22.308Z,2.10
2019-01-08T02:39:22.169Z,2.20
2019-01-08T02:40:22.032Z,1.90
2019-01-08T02:41:21.966Z,1.80
2019-01-08T02:42:21.766Z,1.70
2019-01-08T02:43:21.627Z,1.70
2019-01-08T02:44:21.490Z,1.90
2019-01-08T02:45:21.354Z,1.80
2019-01-08T02:46:21.362Z,1.90
2019-01-08T02:47:21.086Z,1.60
2019-01-08T02:48:20.947Z,1.90
2019-01-08T02:49:20.818Z,1.60
2019-01-08T02:50:20.676Z,1.40
2019-01-08T02:51:20.543Z,1.50
2019-01-08T02:52:20.408Z,1.50
2019-01-08T02:53:20.279Z,1.40
2019-01-08T02:54:20.248Z,1.40
2019-01-08T02:55:19.997Z,1.40
2019-01-08T02:56:19.861Z,1.40
2019-01-08T02:57:19.725Z,1.10
2019-01-08T02:58:19.608Z,1.20
2019-01-08T02:59:25.069Z,1.20
2019-01-08T03:00:19.318Z,1.30
2019-01-08T03:01:19.189Z,1.00
2019-01-08T03:02:19.047Z,1.10
2019-01-08T03:03:18.913Z,1.00
2019-01-08T03:04:18.774Z,1.10
2019-01-08T03:05:18.640Z,1.10
2019-01-08T03:06:18.504Z,1.00
2019-01-08T03:07:18.384Z,1.20
2019-01-08T03:08:18.236Z,1.30
2019-01-08T03:09:18.098Z,1.30
2019-01-08T03:10:17.962Z,1.60
2019-01-08T03:11:17.833Z,2.10
2019-01-08T03:12:17.691Z,2.60
2019-01-08T03:13:17.556Z,2.50
2019-01-08T03:14:17.422Z,2.70
2019-01-08T03:15:17.284Z,2.40
2019-01-08T03:16:17.147Z,2.30
2019-01-08T03:17:17.009Z,2.50
2019-01-08T03:18:16.876Z,2.50
2019-01-08T03:19:16.741Z,2.40
2019-01-08T03:20:16.616Z,2.50
2019-01-08T03:21:16.467Z,2.50
2019-01-08T03:22:16.332Z,2.40
2019-01-08T03:23:16.196Z,2.60
2019-01-08T03:24:16.058Z,2.60
2019-01-08T03:25:15.924Z,2.50
2019-01-08T03:26:15.788Z,2.50
2019-01-08T03:27:15.653Z,2.40
2019-01-08T03:28:15.516Z,2.30
2019-01-08T03:29:15.385Z,2.70
2019-01-08T03:30:15.245Z,2.40
2019-01-08T03:31:15.108Z,2.70
2019-01-08T03:32:14.971Z,2.50
2019-01-08T03:33:14.836Z,2.60
2019-01-08T03:34:14.711Z,2.60
2019-01-08T03:35:14.562Z,2.70
2019-01-08T03:36:14.426Z,2.30
2019-01-08T03:37:14.295Z,2.40
2019-01-08T03:38:14.163Z,2.20
2019-01-08T03:39:14.021Z,2.40
2019-01-08T03:40:13.886Z,2.40
2019-01-08T03:41:13.748Z,2.30
2019-01-08T03:42:13.615Z,2.20
2019-01-08T03:43:13.477Z,2.30
2019-01-08T03:44:13.348Z,2.40
2019-01-08T03:45:13.203Z,2.30
2019-01-08T03:46:13.067Z,2.30
2019-01-08T03:47:12.933Z,2.20
2019-01-08T03:48:12.799Z,2.20
2019-01-08T03:49:12.661Z,2.00
2019-01-08T03:50:12.526Z,2.00
2019-01-08T03:51:12.390Z,2.10
2019-01-08T03:52:12.260Z,2.00
2019-01-08T03:53:12.117Z,2.00
2019-01-08T03:54:11.981Z,2.30
2019-01-08T03:55:11.850Z,2.20
2019-01-08T03:56:11.710Z,2.10
2019-01-08T03:57:11.575Z,2.20
2019-01-08T03:58:11.439Z,2.20
2019-01-08T03:59:11.304Z,2.10
2019-01-08T04:00:11.172Z,2.10
2019-01-08T04:01:11.036Z,2.20
2019-01-08T04:02:10.896Z,2.30
2019-01-08T04:03:10.762Z,2.30
2019-01-08T04:04:10.626Z,2.30
2019-01-08T04:05:10.490Z,2.40
2019-01-08T04:06:10.355Z,2.00
2019-01-08T04:07:10.218Z,1.90
2019-01-08T04:08:10.083Z,2.20
2019-01-08T04:09:09.947Z,2.00
2019-01-08T04:10:09.817Z,2.20
2019-01-08T04:11:09.676Z,2.00
2019-01-08T04:12:09.542Z,2.20
2019-01-08T04:13:09.402Z,2.20
2019-01-08T04:14:09.268Z,2.00
2019-01-08T04:15:09.133Z,2.10
2019-01-08T04:16:08.996Z,2.10
2019-01-08T04:17:08.862Z,2.20
2019-01-08T04:18:08.727Z,2.30
2019-01-08T04:19:08.589Z,2.40
2019-01-08T04:20:08.453Z,2.40
2019-01-08T04:21:08.318Z,2.60
2019-01-08T04:22:08.184Z,2.60
2019-01-08T04:23:08.048Z,2.50
2019-01-08T04:24:07.911Z,2.50
2019-01-08T04:25:07.776Z,2.50
2019-01-08T04:26:07.639Z,2.30
2019-01-08T04:27:07.505Z,2.40
2019-01-08T04:28:07.373Z,2.20
2019-01-08T04:29:07.235Z,2.40
2019-01-08T04:30:08.056Z,2.40
2019-01-08T04:31:06.966Z,2.20
2019-01-08T04:32:06.826Z,1.90
2019-01-08T04:33:06.701Z,2.20
2019-01-08T04:34:06.554Z,2.30
2019-01-08T04:35:06.419Z,3.00
2019-01-08T04:36:06.288Z,2.90
2019-01-08T04:37:06.147Z,3.20
2019-01-08T04:38:06.013Z,2.80
2019-01-08T04:39:05.876Z,3.00
2019-01-08T04:40:05.739Z,3.20
2019-01-08T04:41:05.685Z,3.20
2019-01-08T04:42:05.469Z,2.90
2019-01-08T04:43:05.341Z,2.70
2019-01-08T04:44:05.202Z,2.60
2019-01-08T04:45:05.062Z,2.10
2019-01-08T04:46:04.926Z,1.50
2019-01-08T04:47:04.796Z,1.60
2019-01-08T04:48:04.655Z,1.40
2019-01-08T04:49:04.517Z,1.30
2019-01-08T04:50:04.383Z,1.30
2019-01-08T04:51:04.247Z,1.50
2019-01-08T04:52:04.116Z,1.40
2019-01-08T04:53:03.976Z,1.90
2019-01-08T04:54:03.842Z,2.00
2019-01-08T04:55:03.704Z,2.20
2019-01-08T04:56:03.567Z,2.40
2019-01-08T04:57:03.434Z,1.90
2019-01-08T04:58:03.326Z,2.50
2019-01-08T04:59:03.196Z,2.40
2019-01-08T05:00:03.056Z,2.40
2019-01-08T05:01:02.978Z,2.30
2019-01-08T05:02:02.758Z,2.30
2019-01-08T05:03:02.623Z,2.40
2019-01-08T05:04:02.520Z,2.40
2019-01-08T05:05:02.351Z,2.30
2019-01-08T05:06:02.214Z,2.40
2019-01-08T05:07:02.080Z,2.30
2019-01-08T05:08:01.940Z,2.40
2019-01-08T05:09:01.812Z,2.40
2019-01-08T05:10:01.675Z,2.20
2019-01-08T05:11:01.548Z,2.10
2019-01-08T05:12:01.403Z,2.30
2019-01-08T05:13:01.265Z,2.10
2019-01-08T05:14:01.130Z,1.70
2019-01-08T05:15:02.509Z,1.70
2019-01-08T05:16:00.858Z,1.60
2019-01-08T05:17:00.722Z,1.60
2019-01-08T05:18:00.589Z,1.50
2019-01-08T05:19:00.457Z,1.50
2019-01-08T05:20:00.316Z,1.60
2019-01-08T05:21:00.178Z,1.60
2019-01-08T05:22:00.044Z,1.50
2019-01-08T05:22:59.910Z,1.40
2019-01-08T05:23:59.772Z,1.30
2019-01-08T05:24:59.639Z,1.30
2019-01-08T05:25:59.502Z,1.40
2019-01-08T05:26:59.367Z,1.30
2019-01-08T05:27:59.230Z,1.20
2019-01-08T05:28:59.097Z,1.30
2019-01-08T05:30:07.486Z,1.10
2019-01-08T05:30:58.825Z,1.30
2019-01-08T05:31:58.688Z,1.10
2019-01-08T05:32:58.555Z,1.50
2019-01-08T05:33:58.462Z,1.90
2019-01-08T05:34:58.283Z,1.80
2019-01-08T05:35:58.146Z,2.00
2019-01-08T05:36:58.011Z,2.00
2019-01-08T05:37:57.876Z,1.80
2019-01-08T05:38:57.740Z,2.20
2019-01-08T05:39:57.604Z,2.10
2019-01-08T05:40:57.470Z,2.20
2019-01-08T05:41:57.334Z,2.30
2019-01-08T05:42:57.203Z,2.30
2019-01-08T05:43:57.062Z,2.40
2019-01-08T05:44:56.925Z,2.20
2019-01-08T05:45:56.790Z,2.40
2019-01-08T05:46:56.656Z,2.40
2019-01-08T05:47:56.523Z,2.50
2019-01-08T05:48:56.384Z,2.50
2019-01-08T05:49:56.247Z,2.20
2019-01-08T05:50:56.114Z,1.90
2019-01-08T05:51:55.974Z,0.90
2019-01-08T05:52:55.841Z,0.90
2019-01-08T05:53:55.705Z,0.80
2019-01-08T05:54:55.569Z,1.00
2019-01-08T05:55:55.441Z,1.10
2019-01-08T05:56:55.307Z,0.90
2019-01-08T05:57:55.162Z,0.90
2019-01-08T05:58:55.028Z,1.00
2019-01-08T05:59:54.892Z,0.90
2019-01-08T06:00:54.761Z,0.80
2019-01-08T06:01:54.621Z,0.70
2019-01-08T06:02:54.482Z,2.80
2019-01-08T06:03:54.353Z,5.20
2019-01-08T06:04:54.214Z,6.10
2019-01-08T06:05:54.077Z,5.80
2019-01-08T06:06:53.942Z,4.10
2019-01-08T06:07:53.805Z,3.80
2019-01-08T06:08:53.674Z,3.90
2019-01-08T06:09:53.535Z,4.10
2019-01-08T06:10:53.398Z,3.50
2019-01-08T06:11:53.262Z,3.50
2019-01-08T06:12:53.127Z,3.10
2019-01-08T06:13:52.993Z,3.30
2019-01-08T06:14:52.854Z,3.10
2019-01-08T06:15:52.721Z,3.10
2019-01-08T06:16:52.584Z,3.30
2019-01-08T06:17:52.449Z,3.20
2019-01-08T06:18:52.317Z,3.30
2019-01-08T06:19:52.178Z,3.30
2019-01-08T06:20:52.083Z,3.60
2019-01-08T06:21:51.905Z,3.60
2019-01-08T06:22:51.770Z,5.90
2019-01-08T06:23:51.634Z,11.70
2019-01-08T06:24:51.498Z,21.90
2019-01-08T06:25:51.366Z,17.90
2019-01-08T06:26:51.228Z,14.80
2019-01-08T06:27:51.091Z,14.40
2019-01-08T06:28:50.961Z,15.10
2019-01-08T06:29:50.819Z,12.60
2019-01-08T06:30:50.684Z,11.70
2019-01-08T06:31:50.548Z,11.00
2019-01-08T06:32:50.412Z,9.30
2019-01-08T06:33:50.277Z,7.30
2019-01-08T06:34:50.141Z,6.40
2019-01-08T06:35:50.005Z,4.50
2019-01-08T06:36:49.877Z,3.00
2019-01-08T06:37:49.736Z,1.80
2019-01-08T06:38:49.601Z,0.90
2019-01-08T06:39:49.463Z,0.60
2019-01-08T06:40:57.308Z,0.60
2019-01-08T06:41:49.192Z,0.70
2019-01-08T06:42:49.057Z,1.30
2019-01-08T06:43:48.919Z,1.50
2019-01-08T06:44:48.785Z,1.10
2019-01-08T06:45:48.648Z,0.90
2019-01-08T06:46:48.513Z,0.80
2019-01-08T06:47:48.383Z,0.70
2019-01-08T06:48:48.500Z,0.60
2019-01-08T06:49:48.107Z,0.60
2019-01-08T06:50:55.809Z,0.70
2019-01-08T06:51:47.841Z,0.70
2019-01-08T06:52:47.699Z,0.60
2019-01-08T06:53:47.565Z,0.70
2019-01-08T06:54:47.427Z,0.90
2019-01-08T06:55:47.291Z,1.60
2019-01-08T06:56:47.158Z,1.70
2019-01-08T06:57:47.022Z,1.80
2019-01-08T06:58:46.886Z,1.90
2019-01-08T06:59:46.750Z,2.20
2019-01-08T07:00:46.612Z,2.20
2019-01-08T07:01:46.483Z,2.00
2019-01-08T07:02:46.348Z,2.00
2019-01-08T07:03:46.207Z,2.00
2019-01-08T07:04:46.074Z,1.80
2019-01-08T07:05:45.937Z,1.80
2019-01-08T07:06:45.801Z,1.70
2019-01-08T07:07:45.666Z,1.40
2019-01-08T07:08:45.530Z,1.30
2019-01-08T07:09:45.393Z,1.10
2019-01-08T07:10:45.261Z,2.20
2019-01-08T07:11:45.121Z,2.60
2019-01-08T07:12:44.988Z,2.80
2019-01-08T07:13:44.852Z,2.90
2019-01-08T07:14:44.717Z,3.20
2019-01-08T07:15:44.582Z,2.90
2019-01-08T07:16:44.443Z,2.80
2019-01-08T07:17:44.308Z,3.30
2019-01-08T07:18:44.173Z,3.10
2019-01-08T07:19:44.038Z,3.00
2019-01-08T07:20:43.902Z,3.00
2019-01-08T07:21:43.769Z,3.00
2019-01-08T07:22:43.629Z,2.80
2019-01-08T07:23:43.496Z,3.00
2019-01-08T07:24:43.360Z,2.90
2019-01-08T07:25:43.223Z,3.00
2019-01-08T07:26:43.088Z,2.90
2019-01-08T07:27:42.953Z,3.00
2019-01-08T07:28:42.824Z,2.60
2019-01-08T07:29:42.681Z,2.80
2019-01-08T07:30:42.547Z,2.60
2019-01-08T07:31:42.413Z,2.60
2019-01-08T07:32:42.277Z,2.90
2019-01-08T07:33:42.143Z,2.60
2019-01-08T07:34:42.006Z,2.80
2019-01-08T07:35:41.870Z,3.20
2019-01-08T07:36:41.734Z,3.00
2019-01-08T07:37:41.600Z,3.00
2019-01-08T07:38:41.462Z,2.80
2019-01-08T07:39:41.327Z,3.00
2019-01-08T07:40:41.506Z,3.20
2019-01-08T07:41:41.058Z,5.20
2019-01-08T07:42:40.922Z,6.40
2019-01-08T07:43:40.784Z,5.50
2019-01-08T07:44:40.650Z,6.00
2019-01-08T07:45:40.515Z,6.50
2019-01-08T07:46:40.393Z,5.60
2019-01-08T07:47:40.245Z,5.00
2019-01-08T07:48:40.108Z,5.50
2019-01-08T07:49:39.972Z,4.70
2019-01-08T07:50:39.838Z,3.70
2019-01-08T07:51:39.699Z,3.00
2019-01-08T07:52:39.565Z,3.00
2019-01-08T07:53:39.432Z,3.10
2019-01-08T07:54:39.295Z,3.30
2019-01-08T07:55:39.160Z,3.20
2019-01-08T07:56:39.024Z,2.10
2019-01-08T07:57:38.890Z,2.50
2019-01-08T07:58:38.755Z,2.90
2019-01-08T07:59:38.620Z,2.40
2019-01-08T08:00:38.484Z,2.10
2019-01-08T08:01:38.350Z,2.20
2019-01-08T08:02:38.216Z,2.60
2019-01-08T08:03:38.078Z,2.60
2019-01-08T08:04:37.942Z,2.60
2019-01-08T08:05:37.807Z,2.40
2019-01-08T08:06:37.680Z,2.60
2019-01-08T08:07:37.539Z,2.50
2019-01-08T08:08:37.401Z,2.60
2019-01-08T08:09:37.268Z,2.30
2019-01-08T08:10:37.134Z,2.40
2019-01-08T08:11:36.996Z,2.60
2019-01-08T08:12:36.862Z,3.00
2019-01-08T08:13:36.729Z,2.90
2019-01-08T08:14:36.592Z,3.00
2019-01-08T08:15:36.458Z,2.90
2019-01-08T08:16:36.322Z,2.70
2019-01-08T08:17:36.223Z,3.10
2019-01-08T08:18:36.054Z,3.00
2019-01-08T08:19:35.918Z,3.10
2019-01-08T08:20:35.785Z,3.10
2019-01-08T08:21:35.650Z,3.20
2019-01-08T08:22:35.535Z,2.50
2019-01-08T08:23:35.378Z,2.30
2019-01-08T08:24:35.245Z,1.90
2019-01-08T08:25:35.112Z,2.40
2019-01-08T08:26:34.979Z,2.20
2019-01-08T08:27:34.840Z,2.10
2019-01-08T08:28:34.706Z,2.60
2019-01-08T08:29:34.572Z,2.50
2019-01-08T08:30:34.445Z,2.30
2019-01-08T08:31:34.303Z,2.30
2019-01-08T08:32:34.168Z,2.50
2019-01-08T08:33:34.035Z,2.30
2019-01-08T08:34:33.900Z,2.30
2019-01-08T08:35:33.767Z,2.40
2019-01-08T08:36:33.630Z,2.10
2019-01-08T08:37:33.498Z,1.90
2019-01-08T08:38:33.360Z,2.20
2019-01-08T08:39:33.225Z,2.00
2019-01-08T08:40:33.091Z,1.90
2019-01-08T08:41:32.957Z,1.50
2019-01-08T08:42:32.826Z,1.00
2019-01-08T08:43:32.689Z,1.50
2019-01-08T08:44:32.556Z,1.30
2019-01-08T08:45:32.422Z,1.40
2019-01-08T08:46:32.286Z,1.10
2019-01-08T08:47:32.154Z,1.70
2019-01-08T08:48:32.021Z,2.20
2019-01-08T08:49:31.885Z,2.20
2019-01-08T08:50:31.750Z,2.20
2019-01-08T08:51:31.617Z,1.90
2019-01-08T08:52:31.483Z,1.50
2019-01-08T08:53:31.351Z,1.60
2019-01-08T08:54:31.215Z,1.70
2019-01-08T08:55:31.079Z,1.90
2019-01-08T08:56:30.949Z,1.90
2019-01-08T08:57:30.811Z,1.90
2019-01-08T08:58:30.679Z,1.60
2019-01-08T08:59:30.547Z,1.60
2019-01-08T09:00:30.409Z,1.60
2019-01-08T09:01:30.278Z,1.70
2019-01-08T09:02:30.142Z,1.80
2019-01-08T09:03:30.010Z,1.60
2019-01-08T09:04:29.876Z,1.60
2019-01-08T09:05:29.770Z,1.80
2019-01-08T09:06:29.606Z,1.40
2019-01-08T09:07:29.473Z,1.60
2019-01-08T09:08:29.339Z,1.60
2019-01-08T09:09:29.205Z,1.70
2019-01-08T09:10:29.077Z,1.50
2019-01-08T09:11:28.938Z,1.50
2019-01-08T09:12:28.807Z,1.60
2019-01-08T09:13:28.677Z,1.80
2019-01-08T09:14:28.542Z,1.80
2019-01-08T09:15:28.403Z,1.60
2019-01-08T09:16:28.269Z,1.60
2019-01-08T09:17:28.137Z,1.60
2019-01-08T09:18:28.006Z,1.90
2019-01-08T09:19:27.871Z,1.70
2019-01-08T09:20:27.735Z,1.90
2019-01-08T09:21:27.602Z,1.70
2019-01-08T09:22:27.468Z,1.50
2019-01-08T09:23:27.334Z,2.00
2019-01-08T09:24:27.203Z,1.80
2019-01-08T09:25:27.067Z,1.90
2019-01-08T09:26:26.985Z,1.70
2019-01-08T09:27:26.801Z,1.80
2019-01-08T09:28:26.669Z,1.50
2019-01-08T09:29:26.534Z,1.90
2019-01-08T09:30:26.400Z,1.80
2019-01-08T09:31:26.273Z,1.80
2019-01-08T09:32:26.135Z,2.00
2019-01-08T09:33:25.999Z,1.90
2019-01-08T09:34:25.866Z,1.80
2019-01-08T09:35:25.735Z,1.50
2019-01-08T09:36:25.600Z,1.50
2019-01-08T09:37:25.470Z,1.50
2019-01-08T09:38:25.333Z,1.50
2019-01-08T09:39:25.199Z,1.50
2019-01-08T09:40:25.069Z,1.70
2019-01-08T09:41:24.931Z,1.30
2019-01-08T09:42:24.800Z,1.30
2019-01-08T09:43:24.665Z,1.50
2019-01-08T09:44:24.532Z,1.50
2019-01-08T09:45:24.398Z,1.60
2019-01-08T09:46:24.264Z,1.60
2019-01-08T09:47:24.133Z,1.60
2019-01-08T09:48:24.004Z,1.70
2019-01-08T09:49:23.866Z,2.00
2019-01-08T09:50:23.733Z,1.60
2019-01-08T09:51:23.598Z,1.70
2019-01-08T09:52:23.463Z,1.80
2019-01-08T09:53:23.331Z,1.80
2019-01-08T09:54:23.198Z,1.60
2019-01-08T09:55:23.066Z,2.00
2019-01-08T09:56:22.931Z,2.10
2019-01-08T09:57:22.797Z,2.10
2019-01-08T09:58:22.666Z,2.10
2019-01-08T09:59:22.532Z,2.10
2019-01-08T10:00:22.398Z,2.40
2019-01-08T10:01:24.133Z,2.40
2019-01-08T10:02:22.131Z,2.10
2019-01-08T10:03:21.995Z,2.10
2019-01-08T10:04:21.864Z,1.90
2019-01-08T10:05:21.731Z,2.00
2019-01-08T10:06:21.602Z,1.90
2019-01-08T10:07:21.461Z,2.20
2019-01-08T10:08:21.330Z,1.80
2019-01-08T10:09:21.198Z,2.10
2019-01-08T10:10:21.065Z,1.90
2019-01-08T10:11:20.929Z,1.80
2019-01-08T10:12:20.796Z,1.70
2019-01-08T10:13:20.665Z,1.70
2019-01-08T10:14:20.533Z,2.30
2019-01-08T10:15:20.399Z,2.20
2019-01-08T10:16:20.264Z,1.70
2019-01-08T10:17:20.130Z,1.80
2019-01-08T10:18:19.999Z,1.70
2019-01-08T10:19:19.863Z,1.60
2019-01-08T10:20:19.730Z,1.80
2019-01-08T10:21:19.598Z,6.10
2019-01-08T10:22:19.467Z,2.20
2019-01-08T10:23:19.329Z,1.80
2019-01-08T10:24:19.198Z,1.80
2019-01-08T10:25:19.064Z,1.90
2019-01-08T10:26:18.933Z,1.80
2019-01-08T10:27:18.799Z,2.00
2019-01-08T10:28:18.675Z,2.00
2019-01-08T10:29:18.533Z,1.70
2019-01-08T10:30:18.403Z,1.90
2019-01-08T10:31:18.265Z,2.00
2019-01-08T10:32:18.132Z,2.00
2019-01-08T10:33:18.003Z,2.00
2019-01-08T10:34:17.866Z,1.90
2019-01-08T10:35:17.734Z,1.90
2019-01-08T10:36:17.600Z,2.30
2019-01-08T10:37:17.466Z,2.10
2019-01-08T10:38:17.332Z,2.00
2019-01-08T10:39:17.199Z,2.00
2019-01-08T10:40:17.074Z,2.10
2019-01-08T10:41:16.936Z,1.80
2019-01-08T10:42:16.804Z,1.80
2019-01-08T10:43:16.671Z,1.90
2019-01-08T10:44:16.534Z,2.20
2019-01-08T10:45:16.399Z,1.80
2019-01-08T10:46:16.267Z,1.80
2019-01-08T10:47:16.136Z,1.80
2019-01-08T10:48:16.010Z,2.00
2019-01-08T10:49:15.869Z,1.80
2019-01-08T10:50:15.734Z,1.90
2019-01-08T10:51:15.607Z,2.10
2019-01-08T10:52:15.469Z,2.00
2019-01-08T10:53:15.342Z,18.70
2019-01-08T10:54:15.201Z,63.40
2019-01-08T10:55:15.068Z,42.20
2019-01-08T10:56:14.936Z,4.90
2019-01-08T10:57:14.856Z,2.00
2019-01-08T10:58:14.669Z,1.80
2019-01-08T10:59:14.576Z,3.30
2019-01-08T11:00:14.404Z,3.20
2019-01-08T11:01:14.268Z,2.80
2019-01-08T11:02:14.136Z,3.80
2019-01-08T11:03:14.005Z,6.20
2019-01-08T11:04:13.867Z,4.60
2019-01-08T11:05:13.738Z,2.00
2019-01-08T11:06:13.613Z,2.10
2019-01-08T11:07:13.468Z,1.90
2019-01-08T11:08:13.340Z,2.10
2019-01-08T11:09:13.202Z,3.20
2019-01-08T11:10:13.070Z,2.50
2019-01-08T11:11:12.936Z,2.30
2019-01-08T11:12:12.803Z,2.20
2019-01-08T11:13:12.670Z,2.90
2019-01-08T11:14:12.539Z,2.80
2019-01-08T11:15:12.402Z,2.60
2019-01-08T11:16:12.273Z,2.00
2019-01-08T11:17:12.137Z,2.10
2019-01-08T11:18:12.005Z,3.10
2019-01-08T11:19:11.871Z,6.50
2019-01-08T11:20:11.738Z,5.90
2019-01-08T11:21:11.604Z,12.30
2019-01-08T11:22:11.471Z,6.00
2019-01-08T11:23:11.338Z,5.00
2019-01-08T11:24:11.205Z,13.60
2019-01-08T11:25:11.073Z,5.50
2019-01-08T11:26:10.942Z,2.50
2019-01-08T11:27:10.805Z,3.40
2019-01-08T11:28:10.674Z,3.70
2019-01-08T11:29:10.540Z,3.50
2019-01-08T11:30:10.408Z,3.40
2019-01-08T11:31:10.273Z,3.20
2019-01-08T11:32:10.143Z,2.00
2019-01-08T11:33:10.011Z,2.00
2019-01-08T11:34:09.876Z,1.70
2019-01-08T11:35:09.740Z,6.80
2019-01-08T11:36:09.608Z,5.50
2019-01-08T11:37:09.476Z,19.40
2019-01-08T11:38:09.342Z,19.20
2019-01-08T11:39:10.676Z,10.40
2019-01-08T11:40:09.077Z,5.60
2019-01-08T11:41:08.944Z,4.80
2019-01-08T11:42:08.808Z,4.50
2019-01-08T11:43:08.677Z,3.90
2019-01-08T11:44:08.542Z,2.90
2019-01-08T11:45:08.410Z,2.30
2019-01-08T11:46:08.278Z,2.00
2019-01-08T11:47:08.143Z,1.20
2019-01-08T11:48:08.014Z,3.50
2019-01-08T11:49:07.880Z,6.60
2019-01-08T11:50:07.746Z,8.90
2019-01-08T11:51:07.615Z,8.30
2019-01-08T11:52:07.479Z,17.00
2019-01-08T11:53:07.349Z,11.60
2019-01-08T11:54:07.213Z,5.00
2019-01-08T11:55:07.079Z,9.00
2019-01-08T11:56:06.945Z,12.00
2019-01-08T11:57:06.813Z,9.50
2019-01-08T11:58:06.680Z,11.40
2019-01-08T11:59:06.547Z,11.80
2019-01-08T12:00:06.416Z,4.10
2019-01-08T12:01:06.280Z,8.40
2019-01-08T12:02:06.145Z,20.90
2019-01-08T12:03:06.014Z,7.80
2019-01-08T12:04:05.882Z,2.80
2019-01-08T12:05:05.748Z,3.00
2019-01-08T12:06:05.613Z,7.60
2019-01-08T12:07:05.479Z,8.70
2019-01-08T12:08:05.346Z,6.70
2019-01-08T12:09:05.212Z,7.40
2019-01-08T12:10:05.081Z,4.60
2019-01-08T12:11:04.945Z,3.70
2019-01-08T12:12:04.813Z,3.70
2019-01-08T12:13:05.431Z,9.30
2019-01-08T12:14:04.545Z,11.80
2019-01-08T12:15:04.411Z,9.40
2019-01-08T12:16:04.278Z,6.00
2019-01-08T12:17:04.146Z,4.00
2019-01-08T12:18:04.015Z,3.80
2019-01-08T12:19:03.879Z,3.70
2019-01-08T12:20:03.747Z,3.00
2019-01-08T12:21:03.614Z,3.50
2019-01-08T12:22:03.486Z,7.20
2019-01-08T12:23:03.349Z,4.60
2019-01-08T12:24:03.215Z,2.70
2019-01-08T12:25:03.086Z,4.50
2019-01-08T12:26:02.952Z,3.20
2019-01-08T12:27:02.816Z,4.10
2019-01-08T12:28:04.576Z,3.20
2019-01-08T12:29:02.566Z,3.00
2019-01-08T12:30:02.418Z,2.60
2019-01-08T12:31:02.283Z,2.80
2019-01-08T12:32:06.316Z,3.10
2019-01-08T12:33:02.018Z,2.90
2019-01-08T12:34:01.892Z,3.10
2019-01-08T12:35:01.750Z,3.00
2019-01-08T12:36:01.619Z,3.70
2019-01-08T12:37:01.489Z,3.00
2019-01-08T12:38:01.357Z,3.30
2019-01-08T12:39:01.219Z,3.80
2019-01-08T12:40:01.087Z,3.20
2019-01-08T12:41:00.953Z,3.70
2019-01-08T12:42:00.825Z,3.50
2019-01-08T12:43:00.689Z,3.60
2019-01-08T12:44:00.556Z,3.20
2019-01-08T12:45:00.423Z,2.80
2019-01-08T12:46:00.288Z,4.40
2019-01-08T12:47:00.160Z,5.40
2019-01-08T12:48:00.023Z,6.00
2019-01-08T12:48:59.892Z,6.70
2019-01-08T12:49:59.760Z,6.10
2019-01-08T12:50:59.626Z,5.10
2019-01-08T12:51:59.493Z,4.40
2019-01-08T12:52:59.359Z,2.80
2019-01-08T12:53:59.226Z,2.60
2019-01-08T12:54:59.099Z,2.50
2019-01-08T12:55:58.959Z,2.70
2019-01-08T12:56:58.827Z,2.60
2019-01-08T12:57:58.693Z,2.60
2019-01-08T12:58:58.561Z,3.30
2019-01-08T12:59:58.429Z,2.90
2019-01-08T13:00:58.296Z,2.60
2019-01-08T13:01:58.163Z,2.80
2019-01-08T13:02:58.028Z,6.10
2019-01-08T13:03:57.895Z,5.30
2019-01-08T13:04:57.762Z,3.70
2019-01-08T13:05:57.629Z,2.30
2019-01-08T13:06:57.493Z,1.60
2019-01-08T13:07:57.361Z,1.30
2019-01-08T13:08:57.228Z,1.60
2019-01-08T13:09:57.095Z,1.80
2019-01-08T13:10:56.967Z,1.80
2019-01-08T13:11:56.827Z,1.90
2019-01-08T13:12:56.695Z,1.80
2019-01-08T13:13:56.561Z,2.10
2019-01-08T13:14:56.432Z,2.10
2019-01-08T13:15:56.294Z,1.80